Time;durP1;ratioP1;P1;durP2;ratioP2;P2;SDS_P1;SDS_P2;PMS_P1;PMS_P2;Temp;Humidity;BMP_temperature;BMP_pressure;BME280_temperature;BME280_humidity;BME280_pressure;Samples;Min_cycle;Max_cycle;Signal;HPM_P1;HPM_P2
2022/10/03 00:00:19;;;;;;;6.13;2.90;;;;;;;21.58;59.45;101184.09;5037404;28;20397;-77
2022/10/03 00:03:23;;;;;;;3.85;3.08;;;;;;;21.57;59.38;101180.56;5037391;28;20052;-78
2022/10/03 00:06:14;;;;;;;5.28;3.28;;;;;;;21.57;59.41;101182.41;5037305;28;20041;-78
2022/10/03 00:09:17;;;;;;;7.07;3.10;;;;;;;21.58;59.40;101190.31;5037158;28;20385;-78
2022/10/03 00:12:16;;;;;;;4.95;3.22;;;;;;;21.57;59.31;101185.09;5037271;28;20049;-78
2022/10/03 00:15:02;;;;;;;3.35;2.50;;;;;;;21.57;59.21;101194.03;5036786;28;20401;-78
2022/10/03 00:18:01;;;;;;;3.97;2.63;;;;;;;21.56;59.32;101203.09;5037187;28;20049;-78
2022/10/03 00:20:40;;;;;;;3.95;2.97;;;;;;;21.57;59.43;101207.50;5036968;28;20045;-78
2022/10/03 00:23:20;;;;;;;4.28;3.30;;;;;;;21.58;59.43;101205.66;5036553;28;20041;-78
2022/10/03 00:25:58;;;;;;;4.57;3.38;;;;;;;21.57;59.31;101212.88;5037618;28;20053;-78
2022/10/03 00:28:40;;;;;;;5.35;3.03;;;;;;;21.57;59.31;101210.19;5036735;28;20038;-78
2022/10/03 00:31:16;;;;;;;3.80;2.90;;;;;;;21.57;59.29;101203.94;5035308;28;20068;-78
2022/10/03 00:33:50;;;;;;;6.57;3.33;;;;;;;21.57;59.44;101203.94;5035736;28;20045;-78
2022/10/03 00:36:42;;;;;;;5.28;3.17;;;;;;;21.56;59.41;101203.09;5035897;28;20060;-78
2022/10/03 00:39:26;;;;;;;3.10;2.80;;;;;;;21.57;59.43;101196.72;5036943;28;20045;-78
2022/10/03 00:42:21;;;;;;;5.63;3.75;;;;;;;21.55;59.37;101193.28;5037146;28;20373;-78
2022/10/03 00:45:33;;;;;;;3.72;2.80;;;;;;;21.56;59.48;101200.41;5036887;28;20037;-78
2022/10/03 00:48:12;;;;;;;3.92;2.95;;;;;;;21.57;59.38;101195.88;5033994;28;20057;-79
2022/10/03 00:51:04;;;;;;;4.68;3.28;;;;;;;21.56;59.52;101197.72;5034702;28;20512;-78
2022/10/03 00:54:06;;;;;;;3.63;3.22;;;;;;;21.57;59.48;101202.09;5034987;28;20053;-78
2022/10/03 00:56:42;;;;;;;5.47;2.80;;;;;;;21.57;59.48;101206.63;4975306;28;20063;-78
2022/10/03 00:59:31;;;;;;;4.28;2.80;;;;;;;21.56;59.46;101203.09;4975579;28;20074;-78
2022/10/03 01:02:24;;;;;;;4.93;2.90;;;;;;;21.57;59.47;101201.25;4975560;28;20058;-78
2022/10/03 01:05:12;;;;;;;3.45;2.75;;;;;;;21.57;59.50;101203.94;4975082;28;20510;-78
2022/10/03 01:08:00;;;;;;;5.32;2.97;;;;;;;21.56;59.54;101216.56;4975686;28;20067;-78
2022/10/03 01:10:35;;;;;;;7.55;3.08;;;;;;;21.56;59.43;101208.50;4975665;28;20406;-78
2022/10/03 01:13:33;;;;;;;3.38;2.80;;;;;;;21.57;59.46;101209.34;4975707;28;20063;-77
2022/10/03 01:16:02;;;;;;;3.53;2.60;;;;;;;21.56;59.42;101208.50;4975928;28;20062;-79
2022/10/03 01:18:49;;;;;;;7.85;2.70;;;;;;;21.57;59.50;101206.63;4975818;28;20058;-79
2022/10/03 01:21:58;;;;;;;7.00;3.00;;;;;;;21.55;59.51;101206.75;4959226;28;20466;-78
2022/10/03 01:24:37;;;;;;;5.82;3.17;;;;;;;21.56;59.42;101208.50;4909813;29;20072;-78
2022/10/03 01:27:14;;;;;;;5.35;2.70;;;;;;;21.57;59.52;101223.66;4898812;29;20391;-79
2022/10/03 01:33:02;;;;;;;5.80;3.15;;;;;;;21.56;59.44;101205.78;4909554;29;20144;-78
2022/10/03 01:35:44;;;;;;;5.20;2.92;;;;;;;21.56;59.38;101208.50;4936396;29;20519;-78
2022/10/03 01:38:19;;;;;;;4.10;2.90;;;;;;;21.57;59.44;101220.13;4936581;29;20051;-78
2022/10/03 01:40:55;;;;;;;6.13;3.17;;;;;;;21.57;59.63;101231.75;4936475;29;20064;-78
2022/10/03 01:43:41;;;;;;;3.05;2.38;;;;;;;21.58;59.54;101229.88;4936464;29;20056;-78
2022/10/03 01:46:20;;;;;;;3.20;2.70;;;;;;;21.58;59.41;101233.44;4936639;29;20066;-79
2022/10/03 01:49:07;;;;;;;3.63;2.75;;;;;;;21.58;59.42;101232.59;4936366;29;20051;-79
2022/10/03 01:51:53;;;;;;;4.22;3.33;;;;;;;21.57;59.38;101229.03;4936591;29;20051;-79
2022/10/03 01:54:35;;;;;;;4.97;2.80;;;;;;;21.56;59.55;101232.72;4936341;29;20067;-79
2022/10/03 01:57:39;;;;;;;3.83;2.72;;;;;;;21.58;59.53;101233.44;4936416;29;20052;-78
2022/10/03 02:00:19;;;;;;;3.78;2.83;;;;;;;21.58;59.56;101236.13;4973938;28;20062;-79
2022/10/03 02:03:10;;;;;;;3.15;2.78;;;;;;;21.58;59.63;101235.28;5035444;28;20053;-79
2022/10/03 02:05:53;;;;;;;4.55;3.15;;;;;;;21.58;59.60;101244.22;5035573;28;20057;-79
2022/10/03 02:08:32;;;;;;;4.45;2.60;;;;;;;21.57;59.62;101234.44;5035706;28;20046;-79
2022/10/03 02:11:03;;;;;;;5.97;2.90;;;;;;;21.57;59.65;101250.59;5035867;28;20045;-78
2022/10/03 02:13:40;;;;;;;4.35;2.97;;;;;;;21.57;59.62;101247.91;5035261;28;20401;-79
2022/10/03 02:16:19;;;;;;;3.55;2.53;;;;;;;21.58;59.60;101254.13;5035099;28;20057;-78
2022/10/03 02:18:57;;;;;;;4.68;2.75;;;;;;;21.57;59.57;101242.50;5034947;28;20072;-79
2022/10/03 02:21:34;;;;;;;4.25;2.92;;;;;;;21.57;59.59;101249.75;5035515;28;20053;-79
2022/10/03 02:24:20;;;;;;;3.90;2.67;;;;;;;21.57;59.54;101255.97;5035006;28;20060;-79
2022/10/03 02:27:19;;;;;;;3.97;2.78;;;;;;;21.57;59.53;101260.53;5035748;28;20056;-79
2022/10/03 02:30:13;;;;;;;3.40;3.00;;;;;;;21.58;59.60;101255.00;5034703;28;20508;-79
2022/10/03 02:33:02;;;;;;;3.10;2.80;;;;;;;21.55;59.50;101244.47;5035053;28;20516;-79
2022/10/03 02:35:35;;;;;;;4.53;3.10;;;;;;;21.56;59.80;101256.97;5033463;28;20068;-79
2022/10/03 02:38:12;;;;;;;3.28;2.67;;;;;;;21.56;59.56;101259.69;5035396;28;20053;-79
2022/10/03 02:41:17;;;;;;;3.47;2.78;;;;;;;21.56;59.61;101259.69;5034689;28;20057;-79
2022/10/03 02:44:10;;;;;;;3.65;2.90;;;;;;;21.56;59.46;101259.69;5032644;28;20053;-79
2022/10/03 02:47:02;;;;;;;4.90;2.95;;;;;;;21.56;59.61;101265.06;5033248;28;20429;-79
2022/10/03 02:50:28;;;;;;;3.58;2.58;;;;;;;21.56;59.51;101259.69;5033196;28;20053;-79
2022/10/03 02:53:32;;;;;;;3.25;2.80;;;;;;;21.57;59.42;101264.06;4973611;28;20058;-79
2022/10/03 02:56:29;;;;;;;5.43;3.03;;;;;;;21.55;59.42;101266.03;4916817;29;20394;-79
2022/10/03 02:59:27;;;;;;;5.35;3.33;;;;;;;21.57;59.47;101266.75;4916273;29;20059;-78
2022/10/03 03:02:06;;;;;;;3.55;2.70;;;;;;;21.56;59.41;101267.75;4920328;29;20056;-79
2022/10/03 03:04:55;;;;;;;4.22;2.90;;;;;;;21.55;59.48;101268.72;4920816;29;20063;-78
2022/10/03 03:07:50;;;;;;;4.43;2.42;;;;;;;21.56;59.37;101275.00;4920063;29;20060;-78
2022/10/03 03:10:45;;;;;;;3.75;2.97;;;;;;;21.56;59.36;101275.00;4920084;29;20048;-78
2022/10/03 03:13:30;;;;;;;5.57;2.85;;;;;;;21.56;59.25;101275.00;4920205;29;20068;-78
2022/10/03 03:16:39;;;;;;;2.75;2.40;;;;;;;21.56;59.31;101270.44;4901195;29;20056;-78
2022/10/03 03:19:47;;;;;;;4.03;2.60;;;;;;;21.55;59.26;101276.81;4885151;29;20520;-79
2022/10/03 03:22:34;;;;;;;4.38;2.72;;;;;;;21.56;59.24;101277.69;4901438;29;20059;-79
2022/10/03 03:25:09;;;;;;;3.85;2.65;;;;;;;21.56;59.21;101288.47;4885895;29;20057;-78
2022/10/03 03:27:43;;;;;;;4.00;2.60;;;;;;;21.55;59.28;101282.19;4928896;29;20404;-78
2022/10/03 03:30:12;;;;;;;;;;;;;;;21.55;59.29;101289.44;4939225;29;20044;-78
2022/10/03 03:32:56;;;;;;;7.72;2.97;;;;;;;21.56;59.26;101288.47;4975220;28;19928;-78
2022/10/03 03:35:32;;;;;;;3.05;2.60;;;;;;;21.55;59.24;101303.75;5038384;28;20056;-78
2022/10/03 03:38:27;;;;;;;5.70;2.60;;;;;;;21.55;59.27;101303.75;5038033;28;20053;-78
2022/10/03 03:41:13;;;;;;;3.63;2.80;;;;;;;21.56;59.31;101301.94;5037187;28;20057;-78
2022/10/03 03:44:17;;;;;;;3.38;2.75;;;;;;;21.54;59.33;101304.75;5038217;28;20056;-78
2022/10/03 03:47:13;;;;;;;2.88;2.67;;;;;;;21.55;59.23;101311.81;5038545;28;20057;-78
2022/10/03 03:50:05;;;;;;;3.60;2.40;;;;;;;21.54;59.30;101307.44;5037682;28;20471;-78
2022/10/03 03:52:38;;;;;;;3.78;2.30;;;;;;;21.54;59.32;101304.75;5037408;28;20064;-78
2022/10/03 03:55:23;;;;;;;3.10;2.80;;;;;;;21.54;59.33;101310.13;5036545;28;20473;-78
2022/10/03 03:57:59;;;;;;;4.75;2.72;;;;;;;21.54;59.25;101306.59;5037621;28;20056;-78
2022/10/03 04:00:45;;;;;;;3.58;2.88;;;;;;;21.54;59.30;101307.44;5037773;28;20377;-78
2022/10/03 04:04:00;;;;;;;3.15;2.50;;;;;;;21.54;59.23;101309.28;5037861;28;20477;-78
2022/10/03 04:06:46;;;;;;;3.65;2.80;;;;;;;21.55;59.28;101309.13;5035388;28;20049;-79
2022/10/03 04:09:29;;;;;;;5.32;2.75;;;;;;;21.55;59.26;101310.97;5035289;28;20060;-78
2022/10/03 04:12:11;;;;;;;3.20;2.63;;;;;;;21.54;59.27;101302.03;5035138;28;20057;-78
2022/10/03 04:14:48;;;;;;;3.63;2.60;;;;;;;21.54;59.26;101310.13;5035117;28;20054;-78
2022/10/03 04:21:10;;;;;;;3.45;2.35;;;;;;;21.55;59.19;101302.91;5035448;28;20074;-79
2022/10/03 04:24:12;;;;;;;3.40;2.72;;;;;;;21.54;59.22;101307.44;5035228;28;20065;-78
2022/10/03 04:26:50;;;;;;;3.33;2.60;;;;;;;21.53;59.07;101300.34;5025051;28;20068;-78
2022/10/03 04:29:39;;;;;;;4.97;2.42;;;;;;;21.54;59.25;101304.75;5035155;28;20061;-78
2022/10/03 04:32:36;;;;;;;4.32;2.20;;;;;;;21.54;59.27;101301.19;5017921;28;20168;-78
2022/10/03 04:35:03;;;;;;;3.33;2.50;;;;;;;21.54;59.15;101301.19;5035256;28;20060;-78
2022/10/03 04:37:43;;;;;;;4.40;2.70;;;;;;;21.53;59.18;101300.34;5035960;28;20057;-79
2022/10/03 04:40:37;;;;;;;3.78;2.40;;;;;;;21.54;59.04;101315.50;5036700;28;20050;-78
2022/10/03 04:43:16;;;;;;;4.32;2.75;;;;;;;21.54;59.13;101320.06;5036412;28;20042;-78
2022/10/03 04:45:49;;;;;;;3.38;2.70;;;;;;;21.54;59.21;101323.59;5036812;28;20056;-78
2022/10/03 04:48:27;;;;;;;6.82;2.70;;;;;;;21.54;59.21;101322.75;5036111;28;20049;-78
2022/10/03 04:51:29;;;;;;;4.47;2.83;;;;;;;21.54;59.15;101323.59;5036146;28;20056;-79
2022/10/03 04:54:20;;;;;;;3.53;2.72;;;;;;;21.55;59.14;101325.28;5036239;28;20064;-78
2022/10/03 04:56:48;;;;;;;2.70;2.40;;;;;;;21.54;59.05;101329.00;5036203;28;20401;-78
2022/10/03 04:59:44;;;;;;;6.43;3.00;;;;;;;21.54;59.02;101331.69;5036079;28;20045;-78
2022/10/03 05:02:30;;;;;;;3.58;2.63;;;;;;;21.53;58.99;101331.81;5036098;28;20044;-78
2022/10/03 05:04:57;;;;;;;4.38;2.58;;;;;;;21.55;58.98;101335.22;5036849;28;20045;-79
2022/10/03 05:07:47;;;;;;;3.20;2.10;;;;;;;21.53;59.07;101329.13;5036429;28;20501;-78
2022/10/03 05:10:40;;;;;;;4.15;2.58;;;;;;;21.54;59.09;101339.75;5036857;28;20052;-78
2022/10/03 05:13:18;;;;;;;2.65;2.03;;;;;;;21.53;59.04;101342.59;5036999;28;20072;-79
2022/10/03 05:15:49;;;;;;;3.75;2.45;;;;;;;21.52;59.01;101355.22;5036954;28;20049;-78
2022/10/03 05:18:22;;;;;;;2.70;1.90;;;;;;;21.53;58.95;101350.69;5036720;28;20076;-79
2022/10/03 05:21:32;;;;;;;2.60;2.40;;;;;;;21.54;58.92;101360.47;5035085;28;20060;-79
2022/10/03 05:24:26;;;;;;;4.38;2.53;;;;;;;21.53;59.01;101348.00;5034104;28;20124;-78
2022/10/03 05:27:21;;;;;;;2.92;2.50;;;;;;;21.53;58.94;101350.69;5034196;28;20057;-79
2022/10/03 05:30:05;;;;;;;4.88;2.50;;;;;;;21.53;58.94;101354.22;5034605;28;20049;-78
2022/10/03 05:32:38;;;;;;;2.53;2.15;;;;;;;21.52;58.95;101352.53;5017794;28;20053;-78
2022/10/03 05:35:29;;;;;;;3.60;2.42;;;;;;;21.51;59.00;101348.09;5034319;28;20068;-79
2022/10/03 05:38:12;;;;;;;5.05;2.25;;;;;;;21.52;58.96;101349.84;5016835;28;20068;-79
2022/10/03 05:40:50;;;;;;;6.80;2.63;;;;;;;21.53;58.95;101348.84;5033021;28;20053;-78
2022/10/03 05:43:34;;;;;;;3.35;2.10;;;;;;;21.52;58.94;101346.28;5034039;28;20052;-78
2022/10/03 05:46:19;;;;;;;3.08;2.50;;;;;;;21.52;58.90;101347.16;5033864;28;20060;-78
2022/10/03 05:49:15;;;;;;;2.83;2.47;;;;;;;21.52;59.00;101357.91;5033043;28;20064;-78
2022/10/03 05:51:51;;;;;;;3.97;3.10;;;;;;;21.51;58.90;101358.88;5033694;28;20393;-79
2022/10/03 05:54:44;;;;;;;5.00;2.33;;;;;;;21.52;58.94;101362.47;5033540;28;20516;-79
2022/10/03 05:57:51;;;;;;;;;;;;;;;21.51;58.89;101366.97;5034284;28;20045;-79
2022/10/03 06:00:36;;;;;;;3.28;2.35;;;;;;;21.51;58.95;101361.56;4979009;28;20381;-79
2022/10/03 06:03:36;;;;;;;3.97;2.33;;;;;;;21.52;58.91;101357.06;4994054;28;20469;-79
2022/10/03 06:06:06;;;;;;;2.97;2.20;;;;;;;21.49;58.88;101355.47;4994677;28;20464;-79
2022/10/03 06:08:55;;;;;;;3.22;2.30;;;;;;;21.52;58.85;101363.31;4993852;28;20073;-79
2022/10/03 06:11:34;;;;;;;5.30;2.38;;;;;;;21.51;58.79;101358.03;4994217;28;20069;-79
2022/10/03 06:14:27;;;;;;;3.97;2.17;;;;;;;21.51;58.80;101361.56;4995704;28;20097;-79
2022/10/03 06:17:13;;;;;;;3.72;2.53;;;;;;;21.53;58.90;101370.41;4976894;28;20159;-79
2022/10/03 06:19:49;;;;;;;4.47;2.85;;;;;;;21.53;58.88;101369.53;4993992;28;20053;-78
2022/10/03 06:22:31;;;;;;;3.00;2.70;;;;;;;21.52;58.76;101373.22;4993726;28;20054;-78
2022/10/03 06:25:36;;;;;;;4.13;2.47;;;;;;;21.53;58.75;101375.78;4993229;28;20069;-78
2022/10/03 06:29:01;;;;;;;2.60;2.40;;;;;;;21.53;58.84;101375.78;4977245;28;20074;-79
2022/10/03 06:32:00;;;;;;;3.72;2.83;;;;;;;21.55;58.74;101383.72;4927861;29;20056;-79
2022/10/03 06:35:14;;;;;;;4.35;2.88;;;;;;;21.54;58.70;101380.19;4936832;29;20388;-79
2022/10/03 06:38:22;;;;;;;4.65;2.67;;;;;;;21.54;58.61;101376.63;4901565;29;20064;-79
2022/10/03 06:40:58;;;;;;;4.20;2.50;;;;;;;21.55;58.63;101378.34;4901313;29;20056;-79
2022/10/03 06:43:34;;;;;;;7.82;2.90;;;;;;;21.55;58.66;101381.88;4933883;29;20071;-79
2022/10/03 06:46:23;;;;;;;7.57;3.08;;;;;;;21.56;58.64;101385.44;4956891;29;20059;-77
2022/10/03 06:49:03;;;;;;;3.20;2.80;;;;;;;21.58;58.78;101394.25;4957936;29;20059;-78
2022/10/03 06:51:50;;;;;;;4.20;2.22;;;;;;;21.57;58.77;101390.69;4957874;29;20062;-77
2022/10/03 06:54:38;;;;;;;3.40;2.08;;;;;;;21.59;58.96;101387.84;4958011;29;20463;-77
2022/10/03 06:57:20;;;;;;;5.78;2.80;;;;;;;21.60;58.99;101397.66;4957921;28;20066;-77
2022/10/03 07:00:14;;;;;;;9.00;2.97;;;;;;;21.60;58.78;101397.66;4958780;28;20063;-77
2022/10/03 07:03:02;;;;;;;3.47;2.65;;;;;;;21.62;58.83;101401.91;4957864;29;20090;-77
2022/10/03 07:05:54;;;;;;;3.78;3.42;;;;;;;21.61;58.21;101399.38;4994013;28;20132;-76
2022/10/03 07:08:24;;;;;;;8.00;2.50;;;;;;;21.62;58.53;101403.75;5016613;28;20069;-80
2022/10/03 07:11:03;;;;;;;4.32;2.78;;;;;;;21.62;58.50;101404.63;5015719;28;20050;-79
2022/10/03 07:13:47;;;;;;;3.05;2.35;;;;;;;21.63;58.69;101419.81;5023269;28;20068;-79
2022/10/03 07:16:35;;;;;;;;;;;;;;;21.64;58.83;101409.88;5057160;28;20056;-78
2022/10/03 07:19:14;;;;;;;9.00;3.47;;;;;;;21.66;58.62;101405.22;5057374;28;19921;-78
2022/10/03 07:22:19;;;;;;;5.38;2.67;;;;;;;21.66;58.73;101408.75;5057178;28;20045;-78
2022/10/03 07:25:04;;;;;;;4.22;2.83;;;;;;;21.68;58.62;101420.25;5057062;28;20053;-79
2022/10/03 07:28:08;;;;;;;7.80;2.97;;;;;;;21.69;58.84;101423.81;5056554;28;20045;-78
2022/10/03 07:31:01;;;;;;;5.25;2.50;;;;;;;21.70;58.93;101426.34;5056713;28;20048;-79
2022/10/03 07:33:53;;;;;;;5.57;2.45;;;;;;;21.70;58.79;101425.50;5056982;28;20045;-78
2022/10/03 07:39:37;;;;;;;;;;;;;;;21.71;58.84;101425.41;5056558;28;20060;-84
2022/10/03 07:42:24;;;;;;;3.70;2.90;;;;;;;21.72;58.89;101419.00;5056640;28;20299;-78
2022/10/03 07:45:28;;;;;;;7.28;2.58;;;;;;;21.72;59.16;101412.78;5056044;28;20057;-78
2022/10/03 07:48:18;;;;;;;8.75;2.22;;;;;;;21.71;59.00;101414.63;5055942;28;20072;-78
2022/10/03 07:51:04;;;;;;;7.93;4.00;;;;;;;21.73;58.97;101419.84;5056146;28;20056;-78
2022/10/03 07:53:50;;;;;;;5.55;2.78;;;;;;;21.72;59.03;101421.72;5056175;28;20053;-79
2022/10/03 07:56:41;;;;;;;6.07;2.85;;;;;;;21.74;58.82;101416.16;5056497;28;20048;-80
2022/10/03 07:59:33;;;;;;;6.93;3.33;;;;;;;21.76;58.89;101418.75;5055659;28;20052;-78
2022/10/03 08:02:09;;;;;;;11.35;4.38;;;;;;;21.75;58.99;101411.63;5056426;28;20045;-78
2022/10/03 08:04:52;;;;;;;11.95;4.47;;;;;;;21.75;59.15;101417.03;5056213;28;20049;-79
2022/10/03 08:07:46;;;;;;;9.73;3.40;;;;;;;21.76;59.26;101422.28;5056348;28;20068;-79
2022/10/03 08:10:16;;;;;;;10.35;4.10;;;;;;;21.78;59.12;101439.16;5056254;28;20049;-78
2022/10/03 08:13:24;;;;;;;8.88;4.00;;;;;;;21.78;59.18;101433.78;5056408;28;20045;-81
2022/10/03 08:16:12;;;;;;;9.68;3.17;;;;;;;21.80;59.16;101447.16;5038215;28;20056;-80
2022/10/03 08:18:41;;;;;;;5.60;3.25;;;;;;;21.80;59.30;101444.44;5053888;28;20049;-79
2022/10/03 08:21:32;;;;;;;7.55;3.28;;;;;;;21.81;59.15;101459.63;5053784;28;20057;-79
2022/10/03 08:24:36;;;;;;;9.48;3.67;;;;;;;21.82;59.15;101451.41;4994103;28;20054;-82
2022/10/03 08:27:31;;;;;;;7.68;3.25;;;;;;;21.83;59.13;101452.25;4994479;28;20058;-80
2022/10/03 08:30:15;;;;;;;13.77;3.92;;;;;;;21.84;58.90;101451.28;4987402;28;20058;-79
2022/10/03 08:32:45;;;;;;;12.20;3.72;;;;;;;21.84;58.78;101452.13;4975406;28;20050;-77
2022/10/03 08:35:22;;;;;;;6.90;3.60;;;;;;;21.84;58.81;101440.50;4974685;28;20065;-79
2022/10/03 08:38:17;;;;;;;9.35;4.15;;;;;;;21.87;58.91;101451.00;4974890;28;20462;-77
2022/10/03 08:41:20;;;;;;;8.23;3.45;;;;;;;21.86;58.91;101442.06;4974246;28;20062;-80
2022/10/03 08:44:32;;;;;;;6.57;3.13;;;;;;;21.88;58.83;101441.94;4974308;28;20047;-78
2022/10/03 08:47:13;;;;;;;7.22;3.35;;;;;;;21.88;58.83;101436.56;4986179;28;20300;-79
2022/10/03 08:49:50;;;;;;;8.55;3.65;;;;;;;21.91;58.77;101438.94;4993697;28;20058;-80
2022/10/03 08:52:42;;;;;;;9.07;3.38;;;;;;;21.90;58.73;101443.50;5008447;28;20053;-78
2022/10/03 08:55:34;;;;;;;7.57;3.55;;;;;;;21.92;58.74;101446.94;5013551;28;20077;-78
2022/10/03 08:58:19;;;;;;;15.27;3.53;;;;;;;21.92;58.61;101441.53;5012251;28;20057;-78
2022/10/03 09:01:15;;;;;;;6.00;2.83;;;;;;;21.93;58.57;101439.69;5026485;28;20064;-79
2022/10/03 09:04:10;;;;;;;6.30;3.65;;;;;;;21.93;58.53;101434.28;5035398;28;20485;-79
2022/10/03 09:07:02;;;;;;;5.40;2.85;;;;;;;21.93;58.58;101437.00;5035221;28;20045;-78
2022/10/03 09:10:02;;;;;;;7.63;2.90;;;;;;;21.94;58.69;101438.69;5034990;28;20049;-78
2022/10/03 09:12:48;;;;;;;8.90;3.20;;;;;;;21.94;58.60;101438.69;5033805;28;20496;-77
2022/10/03 09:15:40;;;;;;;6.80;2.97;;;;;;;21.95;58.82;101437.69;5034987;28;20049;-78
2022/10/03 09:18:55;;;;;;;8.10;2.70;;;;;;;21.95;58.57;101437.69;5034829;28;20064;-79
2022/10/03 09:22:00;;;;;;;7.70;3.30;;;;;;;21.95;58.63;101429.59;5034822;28;20045;-79
2022/10/03 09:24:45;;;;;;;7.72;2.85;;;;;;;21.95;58.78;101435.00;5034790;28;20049;-79
2022/10/03 09:27:13;;;;;;;7.25;3.00;;;;;;;21.96;58.67;101428.66;5034461;28;20060;-79
2022/10/03 09:30:12;;;;;;;12.40;3.08;;;;;;;21.96;58.78;101431.34;5044424;28;20045;-78
2022/10/03 09:33:11;;;;;;;9.07;3.08;;;;;;;21.97;58.79;101436.59;5054173;28;20052;-80
2022/10/03 09:35:48;;;;;;;6.47;2.67;;;;;;;21.97;58.71;101430.34;5052956;28;20067;-79
2022/10/03 09:38:45;;;;;;;5.72;3.50;;;;;;;21.97;58.81;101422.25;5054529;28;20045;-77
2022/10/03 09:41:49;;;;;;;8.48;3.40;;;;;;;21.98;58.82;101429.34;5053946;28;20511;-77
2022/10/03 09:44:51;;;;;;;6.57;2.78;;;;;;;21.98;58.84;101422.09;5054393;28;20041;-78
2022/10/03 09:47:57;;;;;;;5.37;2.90;;;;;;;21.97;58.85;101425.81;5054510;28;20055;-79
2022/10/03 09:50:54;;;;;;;6.50;3.00;;;;;;;21.99;58.87;101433.75;5054244;28;20285;-78
2022/10/03 09:53:39;;;;;;;6.70;3.15;;;;;;;22.00;58.87;101429.19;5054151;28;20052;-76
2022/10/03 09:56:24;;;;;;;5.28;2.72;;;;;;;22.01;58.89;101433.63;5054216;28;20049;-79
2022/10/03 09:59:07;;;;;;;6.65;2.92;;;;;;;22.02;58.90;101441.56;5049142;28;20060;-78
2022/10/03 10:01:40;;;;;;;7.30;3.28;;;;;;;22.02;58.89;101438.03;5033543;28;20048;-77
2022/10/03 10:04:35;;;;;;;8.10;3.65;;;;;;;22.02;58.77;101430.78;5034081;28;20479;-81
2022/10/03 10:07:49;;;;;;;5.20;2.90;;;;;;;22.04;59.08;101430.63;5034444;28;20045;-77
2022/10/03 10:10:35;;;;;;;9.75;4.35;;;;;;;22.05;61.04;101429.66;5034328;28;20050;-79
2022/10/03 10:13:25;;;;;;;6.15;3.15;;;;;;;22.04;61.94;101425.25;5033867;28;20052;-78
2022/10/03 10:16:43;;;;;;;4.95;2.67;;;;;;;22.03;63.03;101429.78;5033994;28;20045;-78
2022/10/03 10:19:33;;;;;;;7.05;3.17;;;;;;;22.02;63.29;101420.00;5031849;28;20532;-78
2022/10/03 10:22:11;;;;;;;7.18;3.03;;;;;;;22.02;63.92;101428.09;5032043;28;20064;-81
2022/10/03 10:24:57;;;;;;;6.95;3.08;;;;;;;22.02;63.37;101424.53;5032524;28;20064;-76
2022/10/03 10:27:54;;;;;;;5.95;3.00;;;;;;;22.01;63.89;101429.09;5032574;28;20049;-79
2022/10/03 10:30:45;;;;;;;6.45;2.95;;;;;;;22.01;64.30;101429.09;5031511;28;20053;-78
2022/10/03 10:33:56;;;;;;;5.05;2.85;;;;;;;22.01;63.62;101421.00;5032071;28;20053;-77
2022/10/03 10:36:42;;;;;;;6.75;3.58;;;;;;;22.00;64.35;101422.00;4934726;29;20097;-77
2022/10/03 10:39:41;;;;;;;5.35;3.58;;;;;;;21.99;64.19;101422.97;4934902;29;20059;-78
2022/10/03 10:42:23;;;;;;;5.85;3.38;;;;;;;21.98;64.59;101411.31;4934954;29;20056;-77
2022/10/03 10:45:18;;;;;;;4.80;2.78;;;;;;;21.99;64.37;101412.19;4934803;29;20058;-78
2022/10/03 10:48:07;;;;;;;6.72;3.40;;;;;;;21.99;63.93;101414.88;4919089;29;20067;-79
2022/10/03 10:50:56;;;;;;;11.45;3.45;;;;;;;21.99;63.56;101412.19;4935370;29;20052;-79
2022/10/03 10:54:00;;;;;;;5.78;2.83;;;;;;;22.01;64.67;101412.06;4934964;29;20044;-78
2022/10/03 10:56:58;;;;;;;4.25;2.92;;;;;;;22.00;64.50;101405.81;4954326;29;20535;-77
2022/10/03 11:00:02;;;;;;;7.13;3.22;;;;;;;22.01;64.64;101412.06;4937870;29;20453;-78
2022/10/03 11:03:01;;;;;;;5.97;3.05;;;;;;;21.99;64.29;101409.47;4954093;29;20129;-80
2022/10/03 11:06:05;;;;;;;5.10;3.15;;;;;;;22.01;64.62;101409.38;4954466;29;20055;-78
2022/10/03 11:09:10;;;;;;;6.30;2.80;;;;;;;21.99;64.49;101398.69;5034154;28;20042;-79
2022/10/03 11:11:50;;;;;;;4.07;2.80;;;;;;;21.98;64.05;101402.38;5034627;28;20057;-79
2022/10/03 11:14:40;;;;;;;3.60;2.65;;;;;;;21.99;64.27;101393.31;5034215;28;20049;-76
2022/10/03 11:17:21;;;;;;;6.97;3.38;;;;;;;22.00;64.53;101394.16;5033345;28;20053;-78
2022/10/03 11:20:17;;;;;;;5.70;3.30;;;;;;;21.98;64.58;101383.50;5033465;28;20050;-76
2022/10/03 11:22:53;;;;;;;4.43;3.10;;;;;;;21.99;65.06;101382.50;5037052;28;20045;-77
2022/10/03 11:25:52;;;;;;;5.85;2.90;;;;;;;22.00;65.25;101386.94;5037064;28;20603;-77
2022/10/03 11:28:47;;;;;;;6.20;3.53;;;;;;;21.99;64.87;101377.13;5036501;28;20428;-77
2022/10/03 11:31:33;;;;;;;8.23;3.53;;;;;;;22.00;64.76;101395.03;5035853;28;20045;-78
2022/10/03 11:34:52;;;;;;;8.80;3.30;;;;;;;21.99;64.75;101379.81;5036740;28;20056;-78
2022/10/03 11:37:36;;;;;;;8.15;3.10;;;;;;;21.99;65.38;101371.72;5035144;28;20528;-79
2022/10/03 11:40:18;;;;;;;6.03;3.22;;;;;;;21.99;65.75;101366.34;5035582;28;20449;-80
2022/10/03 11:43:07;;;;;;;4.88;2.97;;;;;;;21.98;65.61;101365.50;5035045;28;20147;-78
2022/10/03 11:45:50;;;;;;;6.43;3.33;;;;;;;21.97;65.64;101369.19;5034817;28;20053;-78
2022/10/03 11:48:36;;;;;;;;;;;;;;;21.99;65.48;101355.56;5035290;28;20061;-78
2022/10/03 11:51:44;;;;;;;7.75;2.97;;;;;;;21.98;65.68;101367.34;5033539;28;19921;-78
2022/10/03 11:54:19;;;;;;;5.00;3.10;;;;;;;21.98;65.89;101351.16;4991118;28;20069;-79
2022/10/03 11:57:16;;;;;;;5.80;3.67;;;;;;;21.98;66.08;101359.25;5034987;28;20068;-86
2022/10/03 11:59:46;;;;;;;9.95;3.85;;;;;;;21.98;64.96;101354.72;5034403;28;20436;-78
2022/10/03 12:02:31;;;;;;;8.70;3.08;;;;;;;21.99;65.51;101347.47;5033892;28;20056;-77
2022/10/03 12:05:35;;;;;;;4.95;2.97;;;;;;;22.01;66.22;101353.59;5034108;28;20057;-77
2022/10/03 12:11:22;;;;;;;7.70;3.30;;;;;;;22.01;65.80;101352.75;5054266;28;20049;-77
2022/10/03 12:14:08;;;;;;;6.97;3.60;;;;;;;22.01;64.66;101345.50;5055455;28;20408;-77
2022/10/03 12:16:50;;;;;;;10.77;3.78;;;;;;;22.01;63.15;101348.19;5056246;28;20049;-78
2022/10/03 12:19:30;;;;;;;9.68;3.90;;;;;;;22.00;63.97;101341.13;5056504;28;20396;-79
2022/10/03 12:22:14;;;;;;;9.63;3.97;;;;;;;22.01;64.94;101340.13;5056155;28;20048;-78
2022/10/03 12:24:44;;;;;;;9.95;3.65;;;;;;;22.00;65.30;101330.31;5056530;28;20045;-78
2022/10/03 12:27:15;;;;;;;5.40;3.92;;;;;;;22.02;65.38;101332.88;5056432;28;20042;-78
2022/10/03 12:29:53;;;;;;;6.32;4.20;;;;;;;22.00;64.57;101327.63;5056267;28;20049;-79
2022/10/03 12:32:42;;;;;;;7.10;4.15;;;;;;;21.99;63.94;101325.91;5055084;28;20060;-79
2022/10/03 12:35:22;;;;;;;6.28;4.30;;;;;;;21.98;63.49;101322.34;5056396;28;20052;-79
2022/10/03 12:37:52;;;;;;;5.35;4.18;;;;;;;21.98;62.92;101329.59;5056515;28;20051;-79
2022/10/03 12:40:31;;;;;;;7.80;3.95;;;;;;;21.97;62.84;101325.19;5056541;28;20052;-79
2022/10/03 12:43:04;;;;;;;8.57;3.83;;;;;;;21.97;64.26;101330.59;5055713;28;20484;-79
2022/10/03 12:45:36;;;;;;;;;;;;;;;21.97;64.57;101320.66;5056395;28;20048;-79
2022/10/03 12:48:15;;;;;;;8.27;3.42;;;;;;;21.96;62.04;101318.13;5057204;28;19921;-79
2022/10/03 12:51:06;;;;;;;10.65;4.00;;;;;;;21.96;60.40;101316.25;5056766;28;20048;-80
2022/10/03 12:53:47;;;;;;;6.65;3.70;;;;;;;21.97;61.52;101309.03;5056459;28;20041;-79
2022/10/03 12:56:14;;;;;;;4.55;3.33;;;;;;;21.97;63.17;101300.94;5056115;28;20053;-79
2022/10/03 12:58:53;;;;;;;11.52;3.30;;;;;;;21.97;62.20;101303.63;5055540;28;20045;-79
2022/10/03 13:01:58;;;;;;;6.88;3.53;;;;;;;21.96;63.56;101308.19;5055099;28;20056;-79
2022/10/03 13:04:32;;;;;;;7.50;3.63;;;;;;;21.96;63.42;101304.63;5054128;28;20518;-79
2022/10/03 13:07:17;;;;;;;7.72;3.60;;;;;;;21.96;63.45;101302.78;5053728;28;20065;-78
2022/10/03 13:09:58;;;;;;;7.88;3.60;;;;;;;21.97;63.40;101293.69;5036609;28;20052;-78
2022/10/03 13:12:56;;;;;;;5.38;3.00;;;;;;;21.98;63.91;101298.09;5053368;28;20049;-78
2022/10/03 13:15:46;;;;;;;13.05;3.83;;;;;;;22.00;62.08;101295.28;5053322;28;20057;-77